Time;durP1;ratioP1;P1;durP2;ratioP2;P2;SDS_P1;SDS_P2;PMS_P1;PMS_P2;Temp;Humidity;BMP_temperature;BMP_pressure;BME280_temperature;BME280_humidity;BME280_pressure;Samples;Min_cycle;Max_cycle;Signal;HPM_P1;HPM_P2
2023/07/07 00:00:01;;;;;;;4.00;3.25;;;;;;;13.65;87.50;101854.31;10259257;29;20379;-70
2023/07/07 00:05:02;;;;;;;6.90;4.03;;;;;;;13.61;88.13;101863.91;10257254;29;20372;-70
2023/07/07 00:10:02;;;;;;;6.00;4.28;;;;;;;13.48;88.39;101861.91;10255825;29;20106;-70
2023/07/07 00:15:03;;;;;;;3.55;3.25;;;;;;;13.43;89.17;101858.91;10257118;28;20043;-71
2023/07/07 00:20:08;;;;;;;3.92;3.47;;;;;;;13.40;89.51;101857.44;10255882;29;20363;-69
2023/07/07 00:25:08;;;;;;;5.40;3.72;;;;;;;13.34;90.05;101843.78;10257857;28;20101;-70
2023/07/07 00:30:10;;;;;;;5.05;3.97;;;;;;;13.32;90.28;101851.28;10256543;29;20062;-70
2023/07/07 00:35:10;;;;;;;4.53;3.33;;;;;;;13.32;90.16;101856.72;10256956;28;20125;-70
2023/07/07 00:40:11;;;;;;;5.55;3.00;;;;;;;13.38;90.65;101853.22;10256041;29;20051;-70
2023/07/07 00:45:14;;;;;;;14.43;3.72;;;;;;;13.39;91.71;101841.28;10255991;28;20039;-70
2023/07/07 00:50:15;;;;;;;5.57;3.15;;;;;;;13.40;91.62;101837.53;10261392;28;20411;-70
2023/07/07 00:55:22;;;;;;;4.97;3.67;;;;;;;13.43;92.41;101842.59;10258582;28;20098;-70
2023/07/07 01:00:23;;;;;;;5.53;3.67;;;;;;;13.36;92.80;101844.41;10239678;29;20039;-69
2023/07/07 01:05:25;;;;;;;14.13;2.95;;;;;;;13.24;92.54;101836.75;10256344;29;20464;-70
2023/07/07 01:10:25;;;;;;;3.17;2.63;;;;;;;13.16;92.96;101842.28;10255681;28;20126;-70
2023/07/07 01:15:28;;;;;;;10.88;3.53;;;;;;;13.11;92.72;101833.84;10254916;28;20355;-70
2023/07/07 01:20:31;;;;;;;6.47;3.13;;;;;;;13.01;93.16;101830.59;10238944;29;20335;-70
2023/07/07 01:25:49;;;;;;;3.28;2.97;;;;;;;12.98;93.75;101826.34;10259205;28;20114;-70
2023/07/07 01:30:55;;;;;;;4.63;4.05;;;;;;;12.93;93.45;101822.56;10259642;29;20114;-70
2023/07/07 01:35:55;;;;;;;6.68;3.88;;;;;;;12.89;93.88;101832.97;10239038;29;20059;-70
2023/07/07 01:41:13;;;;;;;7.00;3.75;;;;;;;12.79;93.29;101824.25;10252888;29;20032;-69
2023/07/07 01:46:16;;;;;;;8.20;4.00;;;;;;;12.75;94.55;101821.06;10238418;29;20039;-70
2023/07/07 01:51:16;;;;;;;5.10;4.03;;;;;;;12.76;94.17;101824.63;10252504;29;20027;-70
2023/07/07 01:56:20;;;;;;;5.78;4.38;;;;;;;12.76;94.94;101832.78;10252032;28;20058;-70
2023/07/07 02:01:20;;;;;;;4.75;4.35;;;;;;;12.83;95.65;101824.69;10251651;29;20078;-70
2023/07/07 02:06:21;;;;;;;4.10;3.63;;;;;;;12.78;95.72;101831.56;10252019;29;20141;-70
2023/07/07 02:11:21;;;;;;;8.13;3.38;;;;;;;12.78;96.72;101822.56;10251832;29;20038;-70
2023/07/07 02:16:22;;;;;;;3.83;3.38;;;;;;;12.76;96.46;101825.50;10253399;29;20039;-70
2023/07/07 02:21:22;;;;;;;4.95;4.25;;;;;;;12.72;97.98;101818.72;10253835;29;20043;-69
2023/07/07 02:26:23;;;;;;;9.27;4.85;;;;;;;12.64;97.43;101827.00;10252788;28;20110;-70
2023/07/07 02:31:24;;;;;;;8.65;3.97;;;;;;;12.63;98.97;101819.00;10252318;29;20087;-70
2023/07/07 02:36:24;;;;;;;4.85;4.32;;;;;;;12.66;98.71;101816.75;10252070;29;20058;-70
2023/07/07 02:41:25;;;;;;;4.53;4.07;;;;;;;12.57;98.37;101816.03;10252738;29;20039;-70
2023/07/07 02:46:25;;;;;;;4.65;4.25;;;;;;;12.53;98.43;101819.31;10252107;29;20039;-70
2023/07/07 02:51:25;;;;;;;6.35;5.70;;;;;;;12.54;99.00;101816.41;10251624;29;20170;-69
2023/07/07 02:56:26;;;;;;;8.10;5.65;;;;;;;12.53;98.79;101828.28;10252696;29;20062;-70
2023/07/07 03:01:26;;;;;;;4.43;4.03;;;;;;;12.50;99.01;101825.94;10252852;29;20524;-70
2023/07/07 03:06:27;;;;;;;7.97;5.45;;;;;;;12.52;99.24;101833.94;10251272;28;20031;-70
2023/07/07 03:11:27;;;;;;;10.38;5.75;;;;;;;12.58;99.34;101833.19;10251684;29;20075;-70
2023/07/07 03:16:31;;;;;;;9.73;5.68;;;;;;;12.56;99.71;101841.50;10251207;29;20043;-69
2023/07/07 03:21:32;;;;;;;6.50;5.88;;;;;;;12.60;99.73;101836.53;10249102;29;20031;-70
2023/07/07 03:26:32;;;;;;;8.55;6.65;;;;;;;12.66;100.00;101833.06;10249349;29;20489;-70
2023/07/07 03:31:33;;;;;;;12.02;6.95;;;;;;;12.68;100.00;101830.19;10251712;28;20035;-70
2023/07/07 03:36:34;;;;;;;9.68;6.07;;;;;;;12.73;100.00;101834.00;10250806;28;20129;-70
2023/07/07 03:41:34;;;;;;;14.65;5.70;;;;;;;12.77;100.00;101832.59;10250976;28;20042;-69
2023/07/07 03:46:35;;;;;;;7.38;5.95;;;;;;;12.84;100.00;101842.72;10250240;29;20042;-69
2023/07/07 03:51:36;;;;;;;12.30;6.88;;;;;;;12.89;100.00;101834.81;10264636;28;20510;-70
2023/07/07 03:56:36;;;;;;;9.98;7.65;;;;;;;12.99;100.00;101829.94;10253762;28;20051;-70
2023/07/07 04:01:36;;;;;;;12.05;7.40;;;;;;;13.07;100.00;101835.25;10236629;29;20058;-70
2023/07/07 04:06:37;;;;;;;8.90;6.80;;;;;;;13.13;100.00;101837.22;10252876;29;20062;-70
2023/07/07 04:11:37;;;;;;;10.60;7.20;;;;;;;13.18;100.00;101836.66;10250279;29;20050;-70
2023/07/07 04:16:38;;;;;;;9.32;6.60;;;;;;;13.32;100.00;101841.22;10250149;29;20497;-70
2023/07/07 04:21:38;;;;;;;9.40;5.95;;;;;;;13.49;100.00;101847.25;10269787;28;20499;-67
2023/07/07 04:26:39;;;;;;;7.53;6.10;;;;;;;13.70;100.00;101836.38;10256923;29;20035;-70
2023/07/07 04:31:45;;;;;;;11.38;5.65;;;;;;;13.87;100.00;101836.09;10256940;28;20117;-69
2023/07/07 04:36:45;;;;;;;8.13;5.45;;;;;;;14.08;100.00;101836.06;10256417;29;20047;-69
2023/07/07 04:41:45;;;;;;;5.97;5.05;;;;;;;14.34;100.00;101837.31;10256067;29;20068;-69
2023/07/07 04:46:46;;;;;;;7.93;5.47;;;;;;;14.96;100.00;101839.13;10238353;29;20123;-71
2023/07/07 04:51:46;;;;;;;7.80;4.63;;;;;;;16.12;100.00;101829.91;10255324;29;20039;-71
2023/07/07 04:56:47;;;;;;;7.68;4.97;;;;;;;16.91;100.00;101832.47;10256825;29;20063;-72
2023/07/07 05:01:47;;;;;;;5.40;3.97;;;;;;;17.59;100.00;101833.78;10255994;29;20043;-78
2023/07/07 05:06:48;;;;;;;4.95;4.43;;;;;;;18.13;98.84;101830.41;10258203;28;20101;-77
2023/07/07 05:11:48;;;;;;;3.95;3.35;;;;;;;18.59;96.91;101834.56;10261388;29;20042;-74
2023/07/07 05:16:49;;;;;;;14.45;4.82;;;;;;;19.22;94.70;101838.06;10254756;29;20035;-70
2023/07/07 05:21:49;;;;;;;3.80;3.42;;;;;;;19.74;93.09;101852.94;10254608;29;20056;-71
2023/07/07 05:26:49;;;;;;;3.70;2.88;;;;;;;20.18;90.38;101847.16;10254443;29;20039;-70
2023/07/07 05:31:50;;;;;;;4.05;3.70;;;;;;;20.69;87.28;101848.34;10252754;28;20070;-71
2023/07/07 05:36:50;;;;;;;5.63;3.85;;;;;;;21.08;82.24;101852.19;10254287;29;20403;-70
2023/07/07 05:41:51;;;;;;;4.80;2.38;;;;;;;21.47;73.39;101857.09;10254024;29;20051;-71
2023/07/07 05:46:51;;;;;;;5.75;2.33;;;;;;;21.72;65.58;101852.03;10253754;29;20145;-69
2023/07/07 05:51:51;;;;;;;2.42;2.22;;;;;;;22.04;59.08;101866.09;10254181;29;20035;-71
2023/07/07 05:56:54;;;;;;;2.65;2.40;;;;;;;22.29;56.09;101862.09;10253026;28;20094;-70
2023/07/07 06:01:54;;;;;;;2.55;2.35;;;;;;;22.54;54.16;101850.63;10253452;29;20046;-70
2023/07/07 06:06:55;;;;;;;2.63;2.22;;;;;;;22.98;52.24;101843.22;10253124;28;20036;-71
2023/07/07 06:11:55;;;;;;;2.45;2.30;;;;;;;23.28;51.35;101858.47;10254147;28;20039;-69
2023/07/07 06:16:56;;;;;;;2.60;2.15;;;;;;;23.66;50.00;101862.19;10252908;29;20039;-70
2023/07/07 06:21:56;;;;;;;2.78;2.30;;;;;;;23.86;49.70;101859.63;10252437;29;20142;-70
2023/07/07 06:26:56;;;;;;;2.80;2.50;;;;;;;24.14;48.03;101866.78;10252922;29;20138;-70
2023/07/07 06:31:57;;;;;;;2.58;2.38;;;;;;;24.33;46.08;101869.13;10252448;29;20463;-71
2023/07/07 06:36:59;;;;;;;2.30;2.10;;;;;;;24.46;45.02;101862.31;10254189;29;20408;-71
2023/07/07 06:42:00;;;;;;;3.97;2.58;;;;;;;24.88;45.37;101864.19;10251787;28;20062;-70
2023/07/07 06:47:00;;;;;;;2.53;2.33;;;;;;;25.19;43.68;101885.41;10250824;29;20480;-70
2023/07/07 06:52:01;;;;;;;5.75;2.28;;;;;;;25.32;43.92;101880.47;10252831;29;20470;-70
2023/07/07 06:57:01;;;;;;;2.20;2.10;;;;;;;25.87;44.02;101878.91;10251561;29;20085;-70
2023/07/07 07:02:01;;;;;;;4.03;2.25;;;;;;;26.02;42.13;101890.03;10233490;29;20039;-71
2023/07/07 07:07:02;;;;;;;14.55;2.95;;;;;;;26.31;41.96;101887.50;10251908;28;20071;-71
2023/07/07 07:12:03;;;;;;;15.57;2.28;;;;;;;26.60;41.70;101884.16;10250893;29;20462;-70
2023/07/07 07:17:03;;;;;;;6.82;2.72;;;;;;;27.19;42.74;101879.81;10249538;29;20502;-70
2023/07/07 07:22:04;;;;;;;14.80;2.58;;;;;;;27.55;40.04;101874.88;10249580;29;20390;-70
2023/07/07 07:27:05;;;;;;;7.55;2.42;;;;;;;28.01;42.65;101875.34;10250563;29;20038;-70
2023/07/07 07:32:05;;;;;;;3.17;2.22;;;;;;;28.52;40.43;101874.06;10251038;29;20082;-70
2023/07/07 07:37:06;;;;;;;2.00;1.90;;;;;;;28.88;37.58;101888.44;10250494;28;20039;-70
2023/07/07 07:42:07;;;;;;;2.95;2.75;;;;;;;28.94;38.19;101890.03;10249841;29;20106;-71
2023/07/07 07:47:07;;;;;;;2.95;2.28;;;;;;;29.30;37.05;101891.56;10250681;29;20059;-69
2023/07/07 07:52:08;;;;;;;3.28;2.97;;;;;;;28.86;36.11;101893.47;10248694;28;20090;-70
2023/07/07 07:57:08;;;;;;;2.58;2.45;;;;;;;29.09;35.76;101896.56;10257533;29;20055;-70
2023/07/07 08:02:12;;;;;;;2.40;2.20;;;;;;;28.97;35.81;101891.38;10240523;29;20157;-71
2023/07/07 08:07:12;;;;;;;5.15;2.80;;;;;;;29.72;36.23;101895.44;10257910;28;20040;-70
2023/07/07 08:12:13;;;;;;;1.70;1.60;;;;;;;29.69;36.50;101888.50;10272283;28;20455;-70
2023/07/07 08:17:14;;;;;;;4.57;3.05;;;;;;;30.45;37.14;101883.56;10255938;29;20038;-71
2023/07/07 08:22:18;;;;;;;5.63;3.00;;;;;;;30.33;35.00;101889.66;10257505;28;20039;-71
2023/07/07 08:27:19;;;;;;;5.50;2.40;;;;;;;30.18;32.73;101903.88;10255053;29;20039;-71
2023/07/07 08:32:21;;;;;;;3.42;2.35;;;;;;;30.35;32.68;101892.16;10255347;29;20043;-70
2023/07/07 08:37:22;;;;;;;2.55;2.35;;;;;;;29.97;32.26;101902.56;10255588;29;20043;-69
2023/07/07 08:42:27;;;;;;;2.22;2.13;;;;;;;30.17;32.98;101902.22;10256207;28;20083;-69
2023/07/07 08:47:44;;;;;;;2.45;2.25;;;;;;;30.21;32.29;101900.50;10255517;28;20111;-70
2023/07/07 08:53:26;;;;;;;2.78;1.90;;;;;;;30.74;30.79;101888.88;10255034;29;20035;-69
2023/07/07 08:58:33;;;;;;;3.40;2.22;;;;;;;30.72;31.92;101893.94;10254989;29;20412;-70
2023/07/07 09:03:36;;;;;;;4.00;2.00;;;;;;;30.88;29.62;101877.72;10256530;28;20413;-70
2023/07/07 09:08:40;;;;;;;2.42;2.22;;;;;;;31.07;28.97;101880.38;10259072;28;20375;-71
2023/07/07 09:13:40;;;;;;;2.63;2.42;;;;;;;31.50;30.68;101880.84;10253378;29;20149;-71
2023/07/07 09:18:53;;;;;;;2.10;2.00;;;;;;;31.96;28.54;101878.91;10253403;29;20039;-70
2023/07/07 09:23:54;;;;;;;3.08;2.80;;;;;;;31.92;29.71;101880.72;10238452;29;20154;-71
2023/07/07 09:28:55;;;;;;;2.80;2.30;;;;;;;32.19;26.99;101872.13;10253848;29;20094;-71
2023/07/07 09:33:56;;;;;;;3.05;2.40;;;;;;;31.47;27.11;101887.06;10238211;29;20102;-69
2023/07/07 09:38:57;;;;;;;3.05;2.80;;;;;;;31.42;28.86;101878.78;10254441;29;20094;-70
2023/07/07 09:44:24;;;;;;;2.70;2.17;;;;;;;31.87;27.52;101875.19;10252815;29;20169;-70
2023/07/07 09:49:49;;;;;;;2.72;2.50;;;;;;;31.89;27.32;101868.16;10239270;29;20062;-70
2023/07/07 09:54:50;;;;;;;3.00;2.35;;;;;;;32.14;27.73;101869.47;10255016;28;20058;-70
2023/07/07 09:59:50;;;;;;;3.42;2.33;;;;;;;32.14;27.49;101869.47;10236775;29;20054;-71
2023/07/07 10:05:15;;;;;;;3.55;2.40;;;;;;;32.33;28.51;101871.25;10254631;29;20031;-70
2023/07/07 10:10:16;;;;;;;2.22;2.13;;;;;;;32.37;27.04;101870.25;10253124;28;20031;-71
2023/07/07 10:15:50;;;;;;;2.15;1.95;;;;;;;32.65;26.96;101872.91;10252020;28;20047;-71
2023/07/07 10:20:51;;;;;;;3.00;2.63;;;;;;;32.09;27.44;101861.19;10253099;29;20031;-70
2023/07/07 10:25:51;;;;;;;2.60;2.40;;;;;;;32.05;27.06;101867.78;10235155;29;20422;-71
2023/07/07 10:30:51;;;;;;;3.27;2.97;;;;;;;32.34;29.37;101867.28;10251463;29;20502;-71
2023/07/07 10:35:52;;;;;;;2.65;2.45;;;;;;;32.64;27.42;101871.22;10251782;29;20274;-70
2023/07/07 10:40:55;;;;;;;2.08;1.98;;;;;;;32.85;28.37;101868.66;10251607;29;20130;-71
2023/07/07 10:45:55;;;;;;;9.63;2.70;;;;;;;32.71;27.98;101862.38;10252034;28;20043;-70
2023/07/07 10:51:20;;;;;;;3.70;3.17;;;;;;;32.36;27.07;101870.59;10251559;29;20118;-70
2023/07/07 10:56:26;;;;;;;3.13;2.90;;;;;;;32.41;26.65;101856.41;10249744;29;20346;-70
2023/07/07 11:01:55;;;;;;;2.75;2.58;;;;;;;32.98;26.61;101864.09;10235273;29;20027;-71
2023/07/07 11:07:15;;;;;;;2.65;2.55;;;;;;;32.80;26.75;101852.81;10250954;29;20118;-69
2023/07/07 11:12:25;;;;;;;4.55;2.47;;;;;;;33.10;26.58;101855.88;10249826;29;20027;-71
2023/07/07 11:17:42;;;;;;;2.92;2.40;;;;;;;33.13;26.06;101846.81;10251185;28;20047;-71
2023/07/07 11:23:04;;;;;;;7.63;3.38;;;;;;;32.98;27.07;101836.88;10249826;29;20078;-72
2023/07/07 11:28:25;;;;;;;2.90;2.60;;;;;;;33.13;26.71;101832.78;10250744;28;20367;-70
2023/07/07 11:33:29;;;;;;;3.03;2.83;;;;;;;32.84;26.69;101841.78;10260982;29;20475;-72
2023/07/07 11:38:44;;;;;;;2.95;2.75;;;;;;;32.86;26.43;101840.28;10260302;28;20043;-71
2023/07/07 11:43:54;;;;;;;2.45;2.35;;;;;;;33.01;26.17;101846.63;10258802;29;20046;-71
2023/07/07 11:49:15;;;;;;;2.67;2.47;;;;;;;33.23;26.38;101840.03;10256870;29;20074;-71
2023/07/07 11:54:19;;;;;;;2.75;2.55;;;;;;;33.70;24.41;101835.44;10257170;29;20074;-71
2023/07/07 11:59:53;;;;;;;2.50;2.30;;;;;;;33.31;24.73;101827.97;10257988;28;20118;-70
2023/07/07 12:04:54;;;;;;;1.92;1.83;;;;;;;33.53;25.37;101819.41;10257022;29;20031;-71
2023/07/07 12:10:01;;;;;;;4.07;3.60;;;;;;;33.31;23.74;101822.34;10240979;29;20070;-71
2023/07/07 12:15:19;;;;;;;5.25;2.70;;;;;;;33.34;24.08;101810.47;10255272;29;20166;-70
2023/07/07 12:20:26;;;;;;;3.85;2.95;;;;;;;33.63;23.00;101823.84;10258036;29;20028;-71
2023/07/07 12:25:28;;;;;;;4.07;3.33;;;;;;;33.51;24.99;101813.31;10255579;29;20035;-72
2023/07/07 12:30:32;;;;;;;2.28;2.17;;;;;;;33.21;24.19;101812.28;10256174;28;20051;-72
2023/07/07 12:35:47;;;;;;;5.05;2.97;;;;;;;33.35;24.70;101812.16;10255863;28;20043;-71
2023/07/07 12:40:48;;;;;;;3.42;2.58;;;;;;;33.49;23.89;101806.34;10238686;28;20055;-71
2023/07/07 12:45:48;;;;;;;2.85;2.63;;;;;;;33.17;25.45;101794.47;10255820;29;20452;-73
2023/07/07 12:50:49;;;;;;;3.63;3.33;;;;;;;32.79;23.50;101802.63;10237810;29;20404;-72
2023/07/07 12:56:04;;;;;;;3.03;2.83;;;;;;;32.82;23.85;101802.81;10238096;29;20094;-72
2023/07/07 13:01:14;;;;;;;3.05;2.72;;;;;;;33.32;23.64;101801.56;10256764;29;20428;-70
2023/07/07 13:06:56;;;;;;;2.25;2.15;;;;;;;33.28;23.26;101795.81;10255821;28;20076;-72
2023/07/07 13:11:58;;;;;;;3.05;2.40;;;;;;;33.02;22.99;101787.34;10249396;28;20050;-72
2023/07/07 13:17:23;;;;;;;3.55;3.10;;;;;;;33.44;23.56;101786.84;10253885;29;20108;-72
2023/07/07 13:22:36;;;;;;;3.67;2.95;;;;;;;33.41;22.92;101793.13;10253138;29;20455;-72
2023/07/07 13:27:36;;;;;;;3.22;2.85;;;;;;;33.51;23.88;101768.38;10236903;29;20063;-71
2023/07/07 13:32:38;;;;;;;3.28;2.67;;;;;;;33.25;23.14;101774.00;10253988;29;20146;-71
2023/07/07 13:37:38;;;;;;;3.33;2.35;;;;;;;33.25;22.59;101774.00;10254955;28;20519;-72
2023/07/07 13:42:38;;;;;;;3.30;3.03;;;;;;;32.76;25.16;101764.03;10236656;29;20107;-72
2023/07/07 13:47:44;;;;;;;2.97;2.78;;;;;;;33.19;24.55;101764.09;10254675;29;20107;-71
2023/07/07 13:52:48;;;;;;;2.65;2.45;;;;;;;33.24;23.33;101758.28;10234943;28;20043;-72
2023/07/07 13:57:48;;;;;;;3.33;2.85;;;;;;;33.30;23.12;101761.75;10253517;28;20053;-73
2023/07/07 14:02:49;;;;;;;3.17;2.83;;;;;;;33.67;25.02;101751.00;10235884;29;20046;-72
2023/07/07 14:07:50;;;;;;;3.47;3.22;;;;;;;33.58;24.42;101753.00;10253969;29;20374;-71
2023/07/07 14:12:50;;;;;;;3.55;3.25;;;;;;;32.72;23.66;101749.84;10252943;29;20065;-72
2023/07/07 14:17:51;;;;;;;2.67;2.55;;;;;;;32.71;23.82;101745.38;10252700;28;20141;-70
2023/07/07 14:22:51;;;;;;;7.63;3.37;;;;;;;32.68;24.65;101750.81;10235741;29;20064;-70
2023/07/07 14:27:56;;;;;;;3.00;2.80;;;;;;;32.31;25.16;101750.19;10252142;29;20289;-72
2023/07/07 14:32:58;;;;;;;3.47;3.17;;;;;;;32.52;24.76;101764.47;10236013;29;20138;-72
2023/07/07 14:38:06;;;;;;;3.75;3.45;;;;;;;32.47;25.37;101751.41;10234894;29;20038;-71
2023/07/07 14:43:21;;;;;;;3.38;3.08;;;;;;;32.09;26.43;101737.91;10250836;29;20031;-71
2023/07/07 14:48:22;;;;;;;3.90;2.95;;;;;;;32.15;25.52;101725.41;10235538;29;20554;-71
2023/07/07 14:53:23;;;;;;;3.83;3.13;;;;;;;32.36;25.73;101725.66;10235196;29;20189;-71
2023/07/07 14:58:24;;;;;;;4.65;3.10;;;;;;;32.09;25.87;101737.91;10251780;28;20380;-71
2023/07/07 15:03:29;;;;;;;3.85;3.20;;;;;;;32.00;26.91;101727.81;10249501;29;20046;-71
2023/07/07 15:08:29;;;;;;;6.07;2.88;;;;;;;31.93;27.13;101729.09;10249657;29;20046;-70
2023/07/07 15:13:30;;;;;;;4.63;3.67;;;;;;;31.78;26.07;101709.91;10250908;29;20043;-72
2023/07/07 15:18:30;;;;;;;3.42;3.13;;;;;;;31.40;26.94;101715.94;10249120;29;20039;-71
2023/07/07 15:23:31;;;;;;;3.67;3.33;;;;;;;31.57;27.09;101722.81;10251436;28;20043;-71
2023/07/07 15:28:31;;;;;;;3.15;2.38;;;;;;;31.32;27.88;101713.88;10250446;29;20039;-71
2023/07/07 15:33:31;;;;;;;4.03;2.88;;;;;;;31.16;27.72;101716.22;10250120;29;20039;-70
2023/07/07 15:38:41;;;;;;;3.40;3.10;;;;;;;31.06;27.34;101710.06;10248666;29;20043;-71
2023/07/07 15:43:41;;;;;;;4.15;3.10;;;;;;;30.89;27.72;101710.72;10249902;29;20063;-72
2023/07/07 15:48:42;;;;;;;3.22;3.00;;;;;;;30.91;28.23;101702.84;10232667;29;20360;-71
2023/07/07 15:53:42;;;;;;;7.43;4.30;;;;;;;30.66;27.79;101704.25;10249095;29;20238;-71
2023/07/07 15:58:43;;;;;;;2.83;2.63;;;;;;;30.75;28.93;101699.56;10250025;29;20058;-71
2023/07/07 16:03:43;;;;;;;3.80;3.40;;;;;;;30.74;28.55;101700.72;10249023;29;20043;-71
2023/07/07 16:08:44;;;;;;;3.27;3.07;;;;;;;30.78;29.12;101698.97;10249607;29;20035;-71
2023/07/07 16:13:51;;;;;;;3.70;3.00;;;;;;;30.39;29.32;101686.38;10248731;28;20261;-70
2023/07/07 16:18:51;;;;;;;3.15;2.95;;;;;;;30.18;30.06;101693.50;10257708;28;20435;-70
2023/07/07 16:23:52;;;;;;;3.78;2.60;;;;;;;29.85;30.75;101688.84;10240733;29;20081;-70
2023/07/07 16:28:52;;;;;;;4.05;3.47;;;;;;;29.03;31.23;101683.03;10256332;28;20076;-71
2023/07/07 16:33:53;;;;;;;4.13;3.15;;;;;;;28.52;32.07;101688.19;10239795;29;20034;-72
2023/07/07 16:38:53;;;;;;;7.78;3.30;;;;;;;28.19;32.48;101686.38;10256688;28;20074;-72
2023/07/07 16:43:57;;;;;;;3.10;2.90;;;;;;;28.13;33.04;101679.22;10258116;29;20039;-72
2023/07/07 16:48:58;;;;;;;3.28;2.97;;;;;;;27.91;33.69;101669.44;10258124;28;20027;-71
2023/07/07 16:53:58;;;;;;;3.60;2.50;;;;;;;27.76;33.32;101677.94;10255766;29;20055;-71
2023/07/07 16:58:59;;;;;;;5.38;2.83;;;;;;;27.68;33.70;101676.63;10270304;28;20039;-72
2023/07/07 17:03:59;;;;;;;5.50;3.05;;;;;;;27.50;33.60;101666.22;10255113;28;20113;-72
2023/07/07 17:09:01;;;;;;;2.42;2.22;;;;;;;27.42;34.03;101662.16;10254673;29;20032;-71
2023/07/07 17:14:01;;;;;;;3.67;2.55;;;;;;;27.38;34.43;101661.09;10254673;29;20147;-70
2023/07/07 17:19:13;;;;;;;4.32;2.53;;;;;;;27.26;34.11;101657.84;10253698;29;20128;-72
2023/07/07 17:24:14;;;;;;;2.92;2.72;;;;;;;27.19;34.05;101651.81;10254514;29;20031;-71
2023/07/07 17:29:15;;;;;;;6.03;3.13;;;;;;;27.16;34.58;101663.50;10236989;29;20348;-72
2023/07/07 17:34:15;;;;;;;6.72;3.45;;;;;;;27.08;34.31;101657.38;10253722;29;20082;-71
2023/07/07 17:39:16;;;;;;;4.68;3.00;;;;;;;27.03;34.56;101660.22;10252549;29;20472;-71
2023/07/07 17:44:17;;;;;;;4.90;3.08;;;;;;;26.99;34.20;101653.56;10254226;28;20122;-71
2023/07/07 17:49:20;;;;;;;5.13;2.75;;;;;;;26.98;34.48;101645.53;10253634;28;20066;-64
2023/07/07 17:54:21;;;;;;;5.90;3.05;;;;;;;26.98;34.94;101642.75;10236770;29;20459;-65
2023/07/07 17:59:22;;;;;;;2.47;2.38;;;;;;;26.90;34.80;101644.22;10253192;28;20031;-66
2023/07/07 18:04:23;;;;;;;2.60;2.47;;;;;;;26.84;34.90;101648.16;10236345;29;20082;-64
2023/07/07 18:09:23;;;;;;;3.17;2.70;;;;;;;26.82;35.44;101647.59;10253081;29;20090;-66
2023/07/07 18:14:23;;;;;;;4.78;3.08;;;;;;;26.74;35.49;101646.28;10236708;29;20039;-66
2023/07/07 18:19:24;;;;;;;8.63;3.17;;;;;;;26.67;35.61;101640.19;10252926;29;20447;-64
2023/07/07 18:24:25;;;;;;;4.60;2.95;;;;;;;26.56;35.15;101633.06;10252338;29;20031;-65
2023/07/07 18:29:25;;;;;;;2.90;2.67;;;;;;;26.52;35.82;101629.19;10252117;29;20450;-64
2023/07/07 18:34:25;;;;;;;3.38;2.88;;;;;;;26.38;35.75;101635.34;10251774;29;20372;-65
2023/07/07 18:39:27;;;;;;;4.78;3.28;;;;;;;26.35;36.40;101641.47;10249942;28;20058;-64
2023/07/07 18:44:28;;;;;;;7.53;2.78;;;;;;;26.29;36.77;101645.41;10251981;28;20036;-66
2023/07/07 18:49:28;;;;;;;4.15;2.90;;;;;;;26.13;37.89;101646.56;10251300;29;20039;-65
2023/07/07 18:54:28;;;;;;;2.80;2.53;;;;;;;26.04;38.38;101643.56;10235345;29;20089;-63
2023/07/07 18:59:29;;;;;;;2.70;1.95;;;;;;;25.89;38.89;101641.66;10251336;29;20097;-62
2023/07/07 19:04:31;;;;;;;2.75;2.55;;;;;;;25.73;39.17;101646.41;10252214;28;20051;-65
2023/07/07 19:09:31;;;;;;;3.10;2.60;;;;;;;25.56;39.39;101639.50;10251026;29;20047;-62
2023/07/07 19:14:31;;;;;;;4.13;2.58;;;;;;;25.38;39.41;101638.16;10252186;29;20051;-63
2023/07/07 19:19:32;;;;;;;5.40;2.72;;;;;;;25.22;39.82;101643.72;10251435;28;20118;-63
2023/07/07 19:24:32;;;;;;;3.03;2.55;;;;;;;25.04;40.68;101641.44;10249908;29;20115;-62
2023/07/07 19:29:34;;;;;;;5.13;2.80;;;;;;;24.89;40.64;101644.22;10265060;28;20483;-62
2023/07/07 19:34:34;;;;;;;3.70;3.03;;;;;;;24.73;41.01;101646.97;10250852;28;20435;-63
2023/07/07 19:39:34;;;;;;;5.65;3.13;;;;;;;24.53;41.15;101650.53;10248943;29;20103;-62
2023/07/07 19:44:35;;;;;;;4.13;2.67;;;;;;;24.32;41.62;101660.69;10249439;29;20043;-62
2023/07/07 19:49:35;;;;;;;20.30;2.85;;;;;;;24.14;41.93;101663.91;10251781;28;20102;-63
2023/07/07 19:54:35;;;;;;;3.00;2.70;;;;;;;23.97;41.88;101663.31;10259290;29;20145;-63
2023/07/07 19:59:36;;;;;;;6.68;3.00;;;;;;;23.78;42.61;101663.75;10257645;29;20043;-63
2023/07/07 20:04:36;;;;;;;4.68;2.38;;;;;;;23.60;42.76;101662.22;10258825;29;20043;-63
2023/07/07 20:09:37;;;;;;;5.85;2.47;;;;;;;23.49;42.78;101663.25;10256455;29;20043;-63
2023/07/07 20:14:38;;;;;;;2.30;2.10;;;;;;;23.40;42.85;101662.91;10256441;29;20047;-62
2023/07/07 20:19:38;;;;;;;3.75;3.15;;;;;;;23.32;43.26;101666.16;10256931;29;20040;-62
2023/07/07 20:24:40;;;;;;;4.45;2.75;;;;;;;23.26;43.44;101670.00;10258552;29;20035;-62
2023/07/07 20:29:41;;;;;;;3.38;3.08;;;;;;;23.16;43.70;101675.41;10240111;29;20042;-61
2023/07/07 20:34:41;;;;;;;4.45;2.70;;;;;;;23.10;43.41;101673.69;10239852;29;20467;-61
2023/07/07 20:39:41;;;;;;;2.70;2.50;;;;;;;22.93;43.48;101680.19;10223402;29;20035;-61
2023/07/07 20:44:42;;;;;;;7.15;2.42;;;;;;;22.75;44.16;101681.38;10256093;29;20117;-61
2023/07/07 20:49:42;;;;;;;9.70;3.05;;;;;;;22.66;44.01;101685.69;10254877;29;20035;-61
2023/07/07 20:54:43;;;;;;;4.40;2.88;;;;;;;22.59;45.02;101685.06;10254197;29;20134;-62
2023/07/07 20:59:43;;;;;;;3.10;2.83;;;;;;;22.54;45.39;101676.72;10254334;28;20126;-61
2023/07/07 21:04:43;;;;;;;3.85;2.15;;;;;;;22.46;46.00;101691.81;10254281;29;20563;-62
2023/07/07 21:09:44;;;;;;;4.38;3.25;;;;;;;22.42;47.09;101690.63;10256442;29;20046;-61
2023/07/07 21:14:44;;;;;;;5.40;2.60;;;;;;;22.37;48.24;101693.34;10254971;28;20464;-61
2023/07/07 21:19:45;;;;;;;5.72;3.13;;;;;;;22.33;49.15;101686.66;10256110;29;20043;-64
2023/07/07 21:24:45;;;;;;;4.43;3.35;;;;;;;22.29;49.79;101691.88;10256282;28;20035;-65
2023/07/07 21:29:48;;;;;;;4.40;3.33;;;;;;;22.27;50.17;101687.69;10255250;29;20043;-65
2023/07/07 21:34:48;;;;;;;3.88;3.47;;;;;;;22.20;51.23;101681.53;10255479;28;20040;-66
2023/07/07 21:39:49;;;;;;;6.20;2.72;;;;;;;22.10;50.88;101684.97;10255415;29;20035;-65
2023/07/07 21:44:49;;;;;;;4.25;3.58;;;;;;;21.97;52.00;101691.69;10253909;29;20039;-66
2023/07/07 21:49:49;;;;;;;8.00;3.42;;;;;;;21.89;51.64;101683.88;10254744;29;20039;-65
2023/07/07 21:54:50;;;;;;;5.70;2.97;;;;;;;21.77;51.79;101694.16;10255093;29;20066;-65
2023/07/07 21:59:50;;;;;;;6.57;3.42;;;;;;;21.67;52.22;101683.81;10253778;29;20059;-65
2023/07/07 22:04:51;;;;;;;5.88;2.65;;;;;;;21.61;52.80;101686.75;10254390;29;20042;-64
2023/07/07 22:09:51;;;;;;;4.18;2.83;;;;;;;21.55;55.38;101689.41;10251999;29;20049;-66
2023/07/07 22:14:51;;;;;;;9.13;2.72;;;;;;;21.55;55.24;101685.84;10253255;28;20050;-64
2023/07/07 22:19:52;;;;;;;8.48;3.70;;;;;;;21.50;54.96;101689.31;10253595;28;20134;-66
2023/07/07 22:24:52;;;;;;;6.20;3.70;;;;;;;21.44;56.03;101683.97;10268915;28;20058;-65
2023/07/07 22:29:53;;;;;;;3.67;3.38;;;;;;;21.42;55.82;101681.50;10266799;28;20066;-64
2023/07/07 22:34:53;;;;;;;3.72;3.13;;;;;;;21.36;56.01;101679.75;10251823;29;20030;-64
2023/07/07 22:39:54;;;;;;;6.07;4.13;;;;;;;21.30;56.21;101675.19;10252602;28;20499;-65
2023/07/07 22:44:54;;;;;;;3.00;2.83;;;;;;;21.26;56.78;101683.13;10252106;29;20074;-65
2023/07/07 22:49:54;;;;;;;4.47;3.42;;;;;;;21.23;57.01;101682.81;10251939;29;20050;-64
2023/07/07 22:54:55;;;;;;;3.92;3.47;;;;;;;21.19;57.67;101682.47;10252100;29;20063;-65
2023/07/07 22:59:55;;;;;;;6.47;3.42;;;;;;;21.13;58.62;101675.19;10250446;29;20054;-66
2023/07/07 23:04:55;;;;;;;4.28;3.72;;;;;;;21.09;58.74;101677.63;10253108;28;20051;-65
2023/07/07 23:09:56;;;;;;;2.88;2.38;;;;;;;20.98;59.91;101667.50;10251525;29;20074;-65